sensor_id;sensor_type;location;lat;lon;timestamp;P1;durP1;ratioP1;P2;durP2;ratioP2
57573;SDS011;68988;49.000;21.242;2024-02-04T00:01:29;2.67;;;2.58;;
57573;SDS011;68988;49.000;21.242;2024-02-04T00:03:55;2.78;;;2.67;;
57573;SDS011;68988;49.000;21.242;2024-02-04T00:06:20;3.00;;;2.80;;
57573;SDS011;68988;49.000;21.242;2024-02-04T00:08:46;2.78;;;2.67;;
57573;SDS011;68988;49.000;21.242;2024-02-04T00:11:11;2.80;;;2.70;;
57573;SDS011;68988;49.000;21.242;2024-02-04T00:13:37;2.92;;;2.83;;
57573;SDS011;68988;49.000;21.242;2024-02-04T00:16:03;2.70;;;2.60;;
57573;SDS011;68988;49.000;21.242;2024-02-04T00:18:29;2.78;;;2.65;;
57573;SDS011;68988;49.000;21.242;2024-02-04T00:20:54;2.63;;;2.53;;
57573;SDS011;68988;49.000;21.242;2024-02-04T00:23:19;2.70;;;2.60;;
57573;SDS011;68988;49.000;21.242;2024-02-04T00:25:45;2.80;;;2.70;;
57573;SDS011;68988;49.000;21.242;2024-02-04T00:28:10;2.90;;;2.80;;
57573;SDS011;68988;49.000;21.242;2024-02-04T00:30:37;3.00;;;2.80;;
57573;SDS011;68988;49.000;21.242;2024-02-04T00:33:05;2.95;;;2.80;;
57573;SDS011;68988;49.000;21.242;2024-02-04T00:35:30;2.85;;;2.65;;
57573;SDS011;68988;49.000;21.242;2024-02-04T00:37:56;2.67;;;2.53;;
57573;SDS011;68988;49.000;21.242;2024-02-04T00:40:22;2.75;;;2.65;;
57573;SDS011;68988;49.000;21.242;2024-02-04T00:42:47;3.20;;;3.00;;
57573;SDS011;68988;49.000;21.242;2024-02-04T00:45:12;2.88;;;2.78;;
57573;SDS011;68988;49.000;21.242;2024-02-04T00:47:38;3.35;;;2.60;;
57573;SDS011;68988;49.000;21.242;2024-02-04T00:50:03;2.90;;;2.70;;
57573;SDS011;68988;49.000;21.242;2024-02-04T00:52:29;3.30;;;3.10;;
57573;SDS011;68988;49.000;21.242;2024-02-04T00:54:54;2.95;;;2.83;;
57573;SDS011;68988;49.000;21.242;2024-02-04T00:57:19;2.72;;;2.63;;
57573;SDS011;68988;49.000;21.242;2024-02-04T00:59:45;2.78;;;2.67;;
57573;SDS011;68988;49.000;21.242;2024-02-04T01:02:10;2.90;;;2.80;;
57573;SDS011;68988;49.000;21.242;2024-02-04T01:04:35;2.92;;;2.83;;
57573;SDS011;68988;49.000;21.242;2024-02-04T01:07:01;2.60;;;2.50;;
57573;SDS011;68988;49.000;21.242;2024-02-04T01:09:27;2.90;;;2.80;;
57573;SDS011;68988;49.000;21.242;2024-02-04T01:11:53;2.97;;;2.80;;
57573;SDS011;68988;49.000;21.242;2024-02-04T01:14:18;2.88;;;2.70;;
57573;SDS011;68988;49.000;21.242;2024-02-04T01:16:44;2.85;;;2.55;;
57573;SDS011;68988;49.000;21.242;2024-02-04T01:19:09;3.00;;;2.80;;
57573;SDS011;68988;49.000;21.242;2024-02-04T01:21:34;2.80;;;2.70;;
57573;SDS011;68988;49.000;21.242;2024-02-04T01:24:00;2.97;;;2.85;;
57573;SDS011;68988;49.000;21.242;2024-02-04T01:26:25;3.10;;;2.97;;
57573;SDS011;68988;49.000;21.242;2024-02-04T01:28:50;3.10;;;2.90;;
57573;SDS011;68988;49.000;21.242;2024-02-04T01:31:16;2.63;;;2.53;;
57573;SDS011;68988;49.000;21.242;2024-02-04T01:33:41;2.80;;;2.70;;
57573;SDS011;68988;49.000;21.242;2024-02-04T01:36:07;3.13;;;2.92;;
57573;SDS011;68988;49.000;21.242;2024-02-04T01:38:33;3.22;;;2.90;;
57573;SDS011;68988;49.000;21.242;2024-02-04T01:40:58;2.58;;;2.47;;
57573;SDS011;68988;49.000;21.242;2024-02-04T01:43:23;2.80;;;2.60;;
57573;SDS011;68988;49.000;21.242;2024-02-04T01:45:49;3.00;;;2.80;;
57573;SDS011;68988;49.000;21.242;2024-02-04T01:48:17;3.03;;;2.83;;
57573;SDS011;68988;49.000;21.242;2024-02-04T01:50:42;2.90;;;2.70;;
57573;SDS011;68988;49.000;21.242;2024-02-04T01:53:08;2.75;;;2.55;;
57573;SDS011;68988;49.000;21.242;2024-02-04T01:55:35;3.25;;;2.95;;
57573;SDS011;68988;49.000;21.242;2024-02-04T01:58:01;3.25;;;3.08;;
57573;SDS011;68988;49.000;21.242;2024-02-04T02:00:27;3.00;;;2.90;;
57573;SDS011;68988;49.000;21.242;2024-02-04T02:02:53;2.72;;;2.63;;
57573;SDS011;68988;49.000;21.242;2024-02-04T02:05:21;3.20;;;3.00;;
57573;SDS011;68988;49.000;21.242;2024-02-04T02:07:47;2.80;;;2.70;;
57573;SDS011;68988;49.000;21.242;2024-02-04T02:10:16;3.17;;;2.97;;
57573;SDS011;68988;49.000;21.242;2024-02-04T02:12:47;2.88;;;2.67;;
57573;SDS011;68988;49.000;21.242;2024-02-04T02:15:15;3.20;;;3.00;;
57573;SDS011;68988;49.000;21.242;2024-02-04T02:18:06;3.00;;;2.80;;
57573;SDS011;68988;49.000;21.242;2024-02-04T02:23:27;2.63;;;2.45;;
57573;SDS011;68988;49.000;21.242;2024-02-04T02:25:55;2.85;;;2.75;;
57573;SDS011;68988;49.000;21.242;2024-02-04T02:28:21;3.47;;;3.28;;
57573;SDS011;68988;49.000;21.242;2024-02-04T02:30:46;3.08;;;2.90;;
57573;SDS011;68988;49.000;21.242;2024-02-04T02:33:12;2.85;;;2.75;;
57573;SDS011;68988;49.000;21.242;2024-02-04T02:35:37;2.53;;;2.42;;
57573;SDS011;68988;49.000;21.242;2024-02-04T02:38:32;3.45;;;3.25;;
57573;SDS011;68988;49.000;21.242;2024-02-04T02:41:03;3.13;;;3.00;;
57573;SDS011;68988;49.000;21.242;2024-02-04T02:43:32;2.55;;;2.45;;
57573;SDS011;68988;49.000;21.242;2024-02-04T02:45:59;3.20;;;3.00;;
57573;SDS011;68988;49.000;21.242;2024-02-04T02:48:25;3.08;;;2.90;;
57573;SDS011;68988;49.000;21.242;2024-02-04T02:50:51;2.60;;;2.50;;
57573;SDS011;68988;49.000;21.242;2024-02-04T02:53:16;3.20;;;3.00;;
57573;SDS011;68988;49.000;21.242;2024-02-04T02:55:44;3.13;;;3.00;;
57573;SDS011;68988;49.000;21.242;2024-02-04T02:58:11;3.00;;;2.90;;
57573;SDS011;68988;49.000;21.242;2024-02-04T03:00:37;3.10;;;3.00;;
57573;SDS011;68988;49.000;21.242;2024-02-04T03:03:02;2.85;;;2.75;;
57573;SDS011;68988;49.000;21.242;2024-02-04T03:05:28;3.00;;;2.90;;
57573;SDS011;68988;49.000;21.242;2024-02-04T03:07:53;3.05;;;2.85;;
57573;SDS011;68988;49.000;21.242;2024-02-04T03:10:19;2.83;;;2.72;;
57573;SDS011;68988;49.000;21.242;2024-02-04T03:12:44;3.25;;;3.05;;
57573;SDS011;68988;49.000;21.242;2024-02-04T03:15:10;4.03;;;3.00;;
57573;SDS011;68988;49.000;21.242;2024-02-04T03:17:35;2.80;;;2.70;;
57573;SDS011;68988;49.000;21.242;2024-02-04T03:20:00;3.00;;;2.80;;
57573;SDS011;68988;49.000;21.242;2024-02-04T03:22:26;3.08;;;2.97;;
57573;SDS011;68988;49.000;21.242;2024-02-04T03:24:51;3.17;;;2.97;;
57573;SDS011;68988;49.000;21.242;2024-02-04T03:27:20;6.57;;;3.00;;
57573;SDS011;68988;49.000;21.242;2024-02-04T03:29:45;3.33;;;3.13;;
57573;SDS011;68988;49.000;21.242;2024-02-04T03:32:11;2.80;;;2.65;;
57573;SDS011;68988;49.000;21.242;2024-02-04T03:34:36;3.13;;;2.92;;
57573;SDS011;68988;49.000;21.242;2024-02-04T03:37:02;3.15;;;2.95;;
57573;SDS011;68988;49.000;21.242;2024-02-04T03:39:27;3.22;;;3.03;;
57573;SDS011;68988;49.000;21.242;2024-02-04T03:41:53;2.88;;;2.75;;
57573;SDS011;68988;49.000;21.242;2024-02-04T03:44:18;3.10;;;2.90;;
57573;SDS011;68988;49.000;21.242;2024-02-04T03:46:43;2.97;;;2.88;;
57573;SDS011;68988;49.000;21.242;2024-02-04T03:49:13;3.15;;;3.03;;
57573;SDS011;68988;49.000;21.242;2024-02-04T03:51:39;3.47;;;3.20;;
57573;SDS011;68988;49.000;21.242;2024-02-04T03:54:04;3.20;;;3.00;;
57573;SDS011;68988;49.000;21.242;2024-02-04T03:56:30;3.05;;;2.85;;
57573;SDS011;68988;49.000;21.242;2024-02-04T03:58:55;3.10;;;2.90;;
57573;SDS011;68988;49.000;21.242;2024-02-04T04:01:21;4.00;;;2.80;;
57573;SDS011;68988;49.000;21.242;2024-02-04T04:03:46;3.17;;;2.97;;
57573;SDS011;68988;49.000;21.242;2024-02-04T04:06:12;2.70;;;2.60;;
57573;SDS011;68988;49.000;21.242;2024-02-04T04:08:37;3.20;;;3.00;;
57573;SDS011;68988;49.000;21.242;2024-02-04T04:11:03;2.80;;;2.70;;
57573;SDS011;68988;49.000;21.242;2024-02-04T04:13:29;3.05;;;2.95;;
57573;SDS011;68988;49.000;21.242;2024-02-04T04:15:55;2.83;;;2.72;;
57573;SDS011;68988;49.000;21.242;2024-02-04T04:18:20;3.33;;;3.13;;
57573;SDS011;68988;49.000;21.242;2024-02-04T04:20:45;2.90;;;2.80;;
57573;SDS011;68988;49.000;21.242;2024-02-04T04:23:11;3.00;;;2.80;;
57573;SDS011;68988;49.000;21.242;2024-02-04T04:25:37;3.00;;;2.90;;
57573;SDS011;68988;49.000;21.242;2024-02-04T04:28:02;2.90;;;2.80;;
57573;SDS011;68988;49.000;21.242;2024-02-04T04:30:28;3.28;;;3.08;;
57573;SDS011;68988;49.000;21.242;2024-02-04T04:32:54;2.90;;;2.80;;
57573;SDS011;68988;49.000;21.242;2024-02-04T04:35:19;2.90;;;2.80;;
57573;SDS011;68988;49.000;21.242;2024-02-04T04:37:45;4.47;;;2.92;;
57573;SDS011;68988;49.000;21.242;2024-02-04T04:40:10;3.05;;;2.85;;
57573;SDS011;68988;49.000;21.242;2024-02-04T04:42:36;3.22;;;3.03;;
57573;SDS011;68988;49.000;21.242;2024-02-04T04:45:01;3.47;;;3.28;;
57573;SDS011;68988;49.000;21.242;2024-02-04T04:47:27;2.88;;;2.70;;
57573;SDS011;68988;49.000;21.242;2024-02-04T04:49:52;3.00;;;2.80;;
57573;SDS011;68988;49.000;21.242;2024-02-04T04:52:17;3.30;;;3.10;;
57573;SDS011;68988;49.000;21.242;2024-02-04T04:54:43;2.85;;;2.75;;
57573;SDS011;68988;49.000;21.242;2024-02-04T04:57:08;3.17;;;2.97;;
57573;SDS011;68988;49.000;21.242;2024-02-04T04:59:33;3.00;;;2.90;;
57573;SDS011;68988;49.000;21.242;2024-02-04T05:02:01;3.30;;;3.05;;
57573;SDS011;68988;49.000;21.242;2024-02-04T05:04:26;2.95;;;2.85;;
57573;SDS011;68988;49.000;21.242;2024-02-04T05:06:52;2.70;;;2.60;;
57573;SDS011;68988;49.000;21.242;2024-02-04T05:09:17;3.20;;;3.00;;
57573;SDS011;68988;49.000;21.242;2024-02-04T05:11:42;3.28;;;2.97;;
57573;SDS011;68988;49.000;21.242;2024-02-04T05:14:08;2.92;;;2.72;;
57573;SDS011;68988;49.000;21.242;2024-02-04T05:16:33;3.25;;;3.05;;
57573;SDS011;68988;49.000;21.242;2024-02-04T05:18:58;3.20;;;3.00;;
57573;SDS011;68988;49.000;21.242;2024-02-04T05:21:24;3.20;;;2.88;;
57573;SDS011;68988;49.000;21.242;2024-02-04T05:23:49;3.22;;;3.03;;
57573;SDS011;68988;49.000;21.242;2024-02-04T05:26:17;3.58;;;3.38;;
57573;SDS011;68988;49.000;21.242;2024-02-04T05:28:43;3.00;;;2.85;;
57573;SDS011;68988;49.000;21.242;2024-02-04T05:31:09;3.05;;;2.85;;
57573;SDS011;68988;49.000;21.242;2024-02-04T05:33:34;3.03;;;2.83;;
57573;SDS011;68988;49.000;21.242;2024-02-04T05:36:00;3.40;;;3.20;;
57573;SDS011;68988;49.000;21.242;2024-02-04T05:38:25;3.38;;;3.17;;
57573;SDS011;68988;49.000;21.242;2024-02-04T05:40:50;3.33;;;3.13;;
57573;SDS011;68988;49.000;21.242;2024-02-04T05:43:16;3.35;;;3.15;;
57573;SDS011;68988;49.000;21.242;2024-02-04T05:45:41;3.08;;;2.97;;
57573;SDS011;68988;49.000;21.242;2024-02-04T05:48:07;2.90;;;2.70;;
57573;SDS011;68988;49.000;21.242;2024-02-04T05:50:33;3.10;;;2.90;;
57573;SDS011;68988;49.000;21.242;2024-02-04T05:52:58;2.90;;;2.80;;
57573;SDS011;68988;49.000;21.242;2024-02-04T05:55:24;2.70;;;2.60;;
57573;SDS011;68988;49.000;21.242;2024-02-04T05:57:49;3.05;;;2.85;;
57573;SDS011;68988;49.000;21.242;2024-02-04T06:00:15;2.88;;;2.78;;
57573;SDS011;68988;49.000;21.242;2024-02-04T06:02:40;2.90;;;2.80;;
57573;SDS011;68988;49.000;21.242;2024-02-04T06:05:08;2.85;;;2.67;;
57573;SDS011;68988;49.000;21.242;2024-02-04T06:07:33;3.10;;;2.90;;
57573;SDS011;68988;49.000;21.242;2024-02-04T06:09:59;2.95;;;2.75;;
57573;SDS011;68988;49.000;21.242;2024-02-04T06:12:25;3.05;;;2.95;;
57573;SDS011;68988;49.000;21.242;2024-02-04T06:14:51;2.78;;;2.67;;
57573;SDS011;68988;49.000;21.242;2024-02-04T06:17:16;3.08;;;2.97;;
57573;SDS011;68988;49.000;21.242;2024-02-04T06:19:41;2.97;;;2.88;;
57573;SDS011;68988;49.000;21.242;2024-02-04T06:22:07;3.03;;;2.83;;
57573;SDS011;68988;49.000;21.242;2024-02-04T06:24:32;3.05;;;2.92;;
57573;SDS011;68988;49.000;21.242;2024-02-04T06:26:57;3.03;;;2.80;;
57573;SDS011;68988;49.000;21.242;2024-02-04T06:29:23;2.72;;;2.63;;
57573;SDS011;68988;49.000;21.242;2024-02-04T06:31:48;2.83;;;2.72;;
57573;SDS011;68988;49.000;21.242;2024-02-04T06:34:13;2.97;;;2.88;;
57573;SDS011;68988;49.000;21.242;2024-02-04T06:36:42;3.10;;;3.00;;
57573;SDS011;68988;49.000;21.242;2024-02-04T06:39:09;3.35;;;3.15;;
57573;SDS011;68988;49.000;21.242;2024-02-04T06:41:34;3.08;;;2.88;;
57573;SDS011;68988;49.000;21.242;2024-02-04T06:44:00;3.03;;;2.92;;
57573;SDS011;68988;49.000;21.242;2024-02-04T06:46:25;2.60;;;2.50;;
57573;SDS011;68988;49.000;21.242;2024-02-04T06:48:52;2.75;;;2.65;;
57573;SDS011;68988;49.000;21.242;2024-02-04T06:51:18;2.65;;;2.55;;
57573;SDS011;68988;49.000;21.242;2024-02-04T06:53:43;2.90;;;2.78;;
57573;SDS011;68988;49.000;21.242;2024-02-04T06:56:09;3.05;;;2.85;;
57573;SDS011;68988;49.000;21.242;2024-02-04T06:58:36;5.07;;;3.17;;
57573;SDS011;68988;49.000;21.242;2024-02-04T07:01:02;3.08;;;2.88;;
57573;SDS011;68988;49.000;21.242;2024-02-04T07:03:28;2.85;;;2.67;;
57573;SDS011;68988;49.000;21.242;2024-02-04T07:05:54;3.00;;;2.90;;
57573;SDS011;68988;49.000;21.242;2024-02-04T07:08:19;2.80;;;2.60;;
57573;SDS011;68988;49.000;21.242;2024-02-04T07:10:45;2.75;;;2.65;;
57573;SDS011;68988;49.000;21.242;2024-02-04T07:13:10;2.78;;;2.67;;
57573;SDS011;68988;49.000;21.242;2024-02-04T07:15:37;3.10;;;2.90;;
57573;SDS011;68988;49.000;21.242;2024-02-04T07:18:03;2.70;;;2.60;;
57573;SDS011;68988;49.000;21.242;2024-02-04T07:20:28;3.03;;;2.92;;
57573;SDS011;68988;49.000;21.242;2024-02-04T07:22:54;3.30;;;3.10;;
57573;SDS011;68988;49.000;21.242;2024-02-04T07:25:19;2.75;;;2.65;;
57573;SDS011;68988;49.000;21.242;2024-02-04T07:27:45;3.10;;;3.00;;
57573;SDS011;68988;49.000;21.242;2024-02-04T07:30:10;2.90;;;2.80;;
57573;SDS011;68988;49.000;21.242;2024-02-04T07:32:36;3.47;;;3.05;;
57573;SDS011;68988;49.000;21.242;2024-02-04T07:35:02;2.80;;;2.70;;
57573;SDS011;68988;49.000;21.242;2024-02-04T07:37:28;2.88;;;2.78;;
57573;SDS011;68988;49.000;21.242;2024-02-04T07:39:53;3.20;;;3.00;;
57573;SDS011;68988;49.000;21.242;2024-02-04T07:42:18;2.72;;;2.63;;
57573;SDS011;68988;49.000;21.242;2024-02-04T07:44:44;2.80;;;2.70;;
57573;SDS011;68988;49.000;21.242;2024-02-04T07:47:09;3.33;;;2.83;;
57573;SDS011;68988;49.000;21.242;2024-02-04T07:49:35;2.90;;;2.80;;
57573;SDS011;68988;49.000;21.242;2024-02-04T07:52:00;2.80;;;2.70;;
57573;SDS011;68988;49.000;21.242;2024-02-04T07:54:25;3.08;;;2.88;;
57573;SDS011;68988;49.000;21.242;2024-02-04T07:56:51;2.90;;;2.80;;
57573;SDS011;68988;49.000;21.242;2024-02-04T07:59:16;2.90;;;2.70;;
57573;SDS011;68988;49.000;21.242;2024-02-04T08:01:41;3.03;;;2.92;;
57573;SDS011;68988;49.000;21.242;2024-02-04T08:04:07;4.22;;;2.67;;
57573;SDS011;68988;49.000;21.242;2024-02-04T08:06:35;3.28;;;2.85;;
57573;SDS011;68988;49.000;21.242;2024-02-04T08:09:02;2.70;;;2.60;;
57573;SDS011;68988;49.000;21.242;2024-02-04T08:11:28;3.00;;;2.80;;
57573;SDS011;68988;49.000;21.242;2024-02-04T08:13:53;3.00;;;2.90;;
57573;SDS011;68988;49.000;21.242;2024-02-04T08:16:19;2.70;;;2.60;;
57573;SDS011;68988;49.000;21.242;2024-02-04T08:18:45;2.90;;;2.70;;
57573;SDS011;68988;49.000;21.242;2024-02-04T08:21:11;2.78;;;2.67;;
57573;SDS011;68988;49.000;21.242;2024-02-04T08:23:36;2.95;;;2.78;;
57573;SDS011;68988;49.000;21.242;2024-02-04T08:26:01;3.00;;;2.80;;
57573;SDS011;68988;49.000;21.242;2024-02-04T08:28:27;3.25;;;3.05;;
57573;SDS011;68988;49.000;21.242;2024-02-04T08:30:53;2.65;;;2.50;;
57573;SDS011;68988;49.000;21.242;2024-02-04T08:33:18;2.90;;;2.80;;
57573;SDS011;68988;49.000;21.242;2024-02-04T08:35:43;2.60;;;2.45;;
57573;SDS011;68988;49.000;21.242;2024-02-04T08:38:09;2.90;;;2.70;;
57573;SDS011;68988;49.000;21.242;2024-02-04T08:40:34;3.47;;;3.17;;
57573;SDS011;68988;49.000;21.242;2024-02-04T08:43:00;2.88;;;2.78;;
57573;SDS011;68988;49.000;21.242;2024-02-04T08:45:25;3.40;;;3.20;;
57573;SDS011;68988;49.000;21.242;2024-02-04T08:47:50;2.90;;;2.80;;
57573;SDS011;68988;49.000;21.242;2024-02-04T08:50:16;3.00;;;2.90;;
57573;SDS011;68988;49.000;21.242;2024-02-04T08:52:41;2.88;;;2.78;;
57573;SDS011;68988;49.000;21.242;2024-02-04T08:55:07;2.72;;;2.63;;
57573;SDS011;68988;49.000;21.242;2024-02-04T08:57:33;2.72;;;2.63;;
57573;SDS011;68988;49.000;21.242;2024-02-04T08:59:59;3.40;;;3.20;;
57573;SDS011;68988;49.000;21.242;2024-02-04T09:02:24;2.90;;;2.80;;
57573;SDS011;68988;49.000;21.242;2024-02-04T09:04:49;2.90;;;2.70;;
57573;SDS011;68988;49.000;21.242;2024-02-04T09:07:15;2.78;;;2.67;;
57573;SDS011;68988;49.000;21.242;2024-02-04T09:09:40;2.72;;;2.63;;
57573;SDS011;68988;49.000;21.242;2024-02-04T09:12:07;3.30;;;3.00;;
57573;SDS011;68988;49.000;21.242;2024-02-04T09:14:35;2.80;;;2.70;;
57573;SDS011;68988;49.000;21.242;2024-02-04T09:17:04;2.90;;;2.78;;
57573;SDS011;68988;49.000;21.242;2024-02-04T09:19:30;2.85;;;2.65;;
57573;SDS011;68988;49.000;21.242;2024-02-04T09:21:56;3.03;;;2.80;;
57573;SDS011;68988;49.000;21.242;2024-02-04T09:24:22;2.95;;;2.75;;
57573;SDS011;68988;49.000;21.242;2024-02-04T09:26:47;2.70;;;2.50;;
57573;SDS011;68988;49.000;21.242;2024-02-04T09:29:12;2.97;;;2.88;;
57573;SDS011;68988;49.000;21.242;2024-02-04T09:31:38;2.60;;;2.50;;
57573;SDS011;68988;49.000;21.242;2024-02-04T09:34:03;2.95;;;2.85;;
57573;SDS011;68988;49.000;21.242;2024-02-04T09:36:29;4.47;;;2.70;;
57573;SDS011;68988;49.000;21.242;2024-02-04T09:38:54;3.17;;;2.97;;
57573;SDS011;68988;49.000;21.242;2024-02-04T09:41:20;2.92;;;2.72;;
57573;SDS011;68988;49.000;21.242;2024-02-04T09:43:47;2.65;;;2.55;;
57573;SDS011;68988;49.000;21.242;2024-02-04T09:46:15;2.90;;;2.78;;
57573;SDS011;68988;49.000;21.242;2024-02-04T09:48:41;2.33;;;2.22;;
57573;SDS011;68988;49.000;21.242;2024-02-04T09:51:09;3.95;;;2.85;;
57573;SDS011;68988;49.000;21.242;2024-02-04T09:53:35;3.00;;;2.80;;
57573;SDS011;68988;49.000;21.242;2024-02-04T09:56:06;2.60;;;2.50;;
57573;SDS011;68988;49.000;21.242;2024-02-04T09:58:33;2.45;;;2.35;;
57573;SDS011;68988;49.000;21.242;2024-02-04T10:01:02;2.75;;;2.65;;
57573;SDS011;68988;49.000;21.242;2024-02-04T10:03:29;3.28;;;3.13;;
57573;SDS011;68988;49.000;21.242;2024-02-04T10:05:54;2.63;;;2.50;;
57573;SDS011;68988;49.000;21.242;2024-02-04T10:08:20;3.35;;;2.80;;
57573;SDS011;68988;49.000;21.242;2024-02-04T10:10:46;3.00;;;2.80;;
57573;SDS011;68988;49.000;21.242;2024-02-04T10:13:12;2.40;;;2.30;;
57573;SDS011;68988;49.000;21.242;2024-02-04T10:15:37;2.50;;;2.40;;
57573;SDS011;68988;49.000;21.242;2024-02-04T10:18:06;2.60;;;2.50;;
57573;SDS011;68988;49.000;21.242;2024-02-04T10:20:33;2.72;;;2.58;;
57573;SDS011;68988;49.000;21.242;2024-02-04T10:22:59;2.65;;;2.55;;
57573;SDS011;68988;49.000;21.242;2024-02-04T10:25:24;2.58;;;2.47;;
57573;SDS011;68988;49.000;21.242;2024-02-04T10:27:51;2.55;;;2.45;;
57573;SDS011;68988;49.000;21.242;2024-02-04T10:30:18;2.92;;;2.72;;
57573;SDS011;68988;49.000;21.242;2024-02-04T10:32:45;2.67;;;2.53;;
57573;SDS011;68988;49.000;21.242;2024-02-04T10:35:11;2.92;;;2.72;;
57573;SDS011;68988;49.000;21.242;2024-02-04T10:37:37;2.78;;;2.67;;
57573;SDS011;68988;49.000;21.242;2024-02-04T10:40:02;3.05;;;2.85;;
57573;SDS011;68988;49.000;21.242;2024-02-04T10:42:29;2.80;;;2.70;;
57573;SDS011;68988;49.000;21.242;2024-02-04T10:44:56;2.47;;;2.38;;
57573;SDS011;68988;49.000;21.242;2024-02-04T10:47:24;2.60;;;2.40;;
57573;SDS011;68988;49.000;21.242;2024-02-04T10:49:54;2.72;;;2.58;;
57573;SDS011;68988;49.000;21.242;2024-02-04T10:52:23;2.97;;;2.88;;
57573;SDS011;68988;49.000;21.242;2024-02-04T10:54:55;3.13;;;2.92;;
57573;SDS011;68988;49.000;21.242;2024-02-04T10:57:21;2.60;;;2.50;;
57573;SDS011;68988;49.000;21.242;2024-02-04T10:59:48;2.63;;;2.53;;
57573;SDS011;68988;49.000;21.242;2024-02-04T11:02:14;2.60;;;2.40;;
57573;SDS011;68988;49.000;21.242;2024-02-04T11:04:41;2.47;;;2.38;;
57573;SDS011;68988;49.000;21.242;2024-02-04T11:07:07;2.47;;;2.28;;
57573;SDS011;68988;49.000;21.242;2024-02-04T11:09:35;2.33;;;2.22;;
57573;SDS011;68988;49.000;21.242;2024-02-04T11:12:01;2.42;;;2.22;;
57573;SDS011;68988;49.000;21.242;2024-02-04T11:14:32;2.20;;;2.10;;
57573;SDS011;68988;49.000;21.242;2024-02-04T11:20:14;2.47;;;2.38;;
57573;SDS011;68988;49.000;21.242;2024-02-04T11:25:44;2.40;;;2.30;;
57573;SDS011;68988;49.000;21.242;2024-02-04T11:28:12;2.47;;;2.38;;
57573;SDS011;68988;49.000;21.242;2024-02-04T11:30:38;2.63;;;2.47;;
57573;SDS011;68988;49.000;21.242;2024-02-04T11:33:04;2.38;;;2.28;;
57573;SDS011;68988;49.000;21.242;2024-02-04T11:35:31;2.30;;;2.20;;
57573;SDS011;68988;49.000;21.242;2024-02-04T11:37:57;2.28;;;2.17;;
57573;SDS011;68988;49.000;21.242;2024-02-04T11:40:22;2.55;;;2.45;;
57573;SDS011;68988;49.000;21.242;2024-02-04T11:42:49;2.35;;;2.25;;
57573;SDS011;68988;49.000;21.242;2024-02-04T11:45:15;2.42;;;2.33;;
57573;SDS011;68988;49.000;21.242;2024-02-04T11:47:41;2.60;;;2.50;;
57573;SDS011;68988;49.000;21.242;2024-02-04T11:50:07;2.22;;;2.13;;
57573;SDS011;68988;49.000;21.242;2024-02-04T11:52:34;2.60;;;2.50;;
57573;SDS011;68988;49.000;21.242;2024-02-04T11:55:00;2.50;;;2.40;;
57573;SDS011;68988;49.000;21.242;2024-02-04T11:57:25;2.45;;;2.35;;
57573;SDS011;68988;49.000;21.242;2024-02-04T11:59:51;2.42;;;2.33;;
57573;SDS011;68988;49.000;21.242;2024-02-04T12:02:19;2.47;;;2.33;;
57573;SDS011;68988;49.000;21.242;2024-02-04T12:04:45;3.03;;;2.30;;
57573;SDS011;68988;49.000;21.242;2024-02-04T12:07:11;2.25;;;2.15;;
57573;SDS011;68988;49.000;21.242;2024-02-04T12:09:38;2.42;;;2.33;;
57573;SDS011;68988;49.000;21.242;2024-02-04T12:12:04;2.47;;;2.38;;
57573;SDS011;68988;49.000;21.242;2024-02-04T12:14:30;2.60;;;2.50;;
57573;SDS011;68988;49.000;21.242;2024-02-04T12:16:56;2.30;;;2.20;;
57573;SDS011;68988;49.000;21.242;2024-02-04T12:19:22;2.50;;;2.40;;
57573;SDS011;68988;49.000;21.242;2024-02-04T12:21:48;2.20;;;2.10;;
57573;SDS011;68988;49.000;21.242;2024-02-04T12:24:13;2.30;;;2.20;;
57573;SDS011;68988;49.000;21.242;2024-02-04T12:26:39;2.10;;;2.00;;
57573;SDS011;68988;49.000;21.242;2024-02-04T12:29:05;2.65;;;2.55;;
57573;SDS011;68988;49.000;21.242;2024-02-04T12:31:31;2.50;;;2.40;;
57573;SDS011;68988;49.000;21.242;2024-02-04T12:33:59;2.40;;;2.30;;
57573;SDS011;68988;49.000;21.242;2024-02-04T12:36:29;1.92;;;1.83;;
57573;SDS011;68988;49.000;21.242;2024-02-04T12:38:57;2.65;;;2.55;;
57573;SDS011;68988;49.000;21.242;2024-02-04T12:41:23;2.20;;;2.10;;
57573;SDS011;68988;49.000;21.242;2024-02-04T12:43:52;2.60;;;2.50;;
57573;SDS011;68988;49.000;21.242;2024-02-04T12:46:19;2.35;;;2.25;;
57573;SDS011;68988;49.000;21.242;2024-02-04T12:48:50;2.50;;;2.40;;
57573;SDS011;68988;49.000;21.242;2024-02-04T12:51:31;2.55;;;2.45;;
57573;SDS011;68988;49.000;21.242;2024-02-04T12:56:38;2.60;;;2.50;;
57573;SDS011;68988;49.000;21.242;2024-02-04T12:59:30;2.50;;;2.40;;
57573;SDS011;68988;49.000;21.242;2024-02-04T13:01:57;2.50;;;2.40;;
57573;SDS011;68988;49.000;21.242;2024-02-04T13:04:23;2.40;;;2.30;;
57573;SDS011;68988;49.000;21.242;2024-02-04T13:06:49;2.20;;;2.10;;
57573;SDS011;68988;49.000;21.242;2024-02-04T13:09:16;1.92;;;1.83;;
57573;SDS011;68988;49.000;21.242;2024-02-04T13:11:42;2.65;;;2.55;;
57573;SDS011;68988;49.000;21.242;2024-02-04T13:14:08;2.20;;;2.10;;
57573;SDS011;68988;49.000;21.242;2024-02-04T13:16:33;2.40;;;2.30;;
57573;SDS011;68988;49.000;21.242;2024-02-04T13:19:01;2.30;;;2.20;;
57573;SDS011;68988;49.000;21.242;2024-02-04T13:21:27;2.25;;;2.15;;
57573;SDS011;68988;49.000;21.242;2024-02-04T13:23:53;2.60;;;2.50;;
57573;SDS011;68988;49.000;21.242;2024-02-04T13:26:18;2.30;;;2.20;;
57573;SDS011;68988;49.000;21.242;2024-02-04T13:28:44;2.58;;;2.47;;
57573;SDS011;68988;49.000;21.242;2024-02-04T13:31:09;2.30;;;2.20;;
57573;SDS011;68988;49.000;21.242;2024-02-04T13:33:35;2.03;;;1.92;;
57573;SDS011;68988;49.000;21.242;2024-02-04T13:36:02;2.40;;;2.30;;
57573;SDS011;68988;49.000;21.242;2024-02-04T13:38:28;2.10;;;2.00;;
57573;SDS011;68988;49.000;21.242;2024-02-04T13:40:53;2.45;;;2.25;;
57573;SDS011;68988;49.000;21.242;2024-02-04T13:43:19;2.17;;;2.08;;
57573;SDS011;68988;49.000;21.242;2024-02-04T13:45:44;1.70;;;1.60;;
57573;SDS011;68988;49.000;21.242;2024-02-04T13:48:09;2.40;;;2.30;;
57573;SDS011;68988;49.000;21.242;2024-02-04T13:50:35;2.28;;;2.17;;
57573;SDS011;68988;49.000;21.242;2024-02-04T13:53:02;2.10;;;2.00;;
57573;SDS011;68988;49.000;21.242;2024-02-04T13:55:28;2.10;;;2.00;;
57573;SDS011;68988;49.000;21.242;2024-02-04T13:57:53;2.35;;;2.25;;
57573;SDS011;68988;49.000;21.242;2024-02-04T14:00:19;2.45;;;2.33;;
57573;SDS011;68988;49.000;21.242;2024-02-04T14:02:44;2.13;;;2.03;;
57573;SDS011;68988;49.000;21.242;2024-02-04T14:05:09;2.10;;;2.00;;
57573;SDS011;68988;49.000;21.242;2024-02-04T14:07:35;2.15;;;2.05;;
57573;SDS011;68988;49.000;21.242;2024-02-04T14:10:00;2.15;;;2.05;;
57573;SDS011;68988;49.000;21.242;2024-02-04T14:12:26;2.53;;;1.88;;
57573;SDS011;68988;49.000;21.242;2024-02-04T14:14:51;2.20;;;2.10;;
57573;SDS011;68988;49.000;21.242;2024-02-04T14:17:16;2.10;;;2.00;;
57573;SDS011;68988;49.000;21.242;2024-02-04T14:19:42;2.00;;;1.90;;
57573;SDS011;68988;49.000;21.242;2024-02-04T14:22:10;2.45;;;2.25;;
57573;SDS011;68988;49.000;21.242;2024-02-04T14:24:35;2.42;;;2.33;;
57573;SDS011;68988;49.000;21.242;2024-02-04T14:27:04;2.33;;;2.22;;
57573;SDS011;68988;49.000;21.242;2024-02-04T14:29:29;2.63;;;2.45;;
57573;SDS011;68988;49.000;21.242;2024-02-04T14:31:56;2.22;;;2.10;;
57573;SDS011;68988;49.000;21.242;2024-02-04T14:34:22;1.95;;;1.85;;
57573;SDS011;68988;49.000;21.242;2024-02-04T14:36:52;2.13;;;2.03;;
57573;SDS011;68988;49.000;21.242;2024-02-04T14:39:17;2.10;;;2.00;;